Time;durP1;ratioP1;P1;durP2;ratioP2;P2;SDS_P1;SDS_P2;PMS_P1;PMS_P2;Temp;Humidity;BMP_temperature;BMP_pressure;BME280_temperature;BME280_humidity;BME280_pressure;Samples;Min_cycle;Max_cycle;Signal;HPM_P1;HPM_P2
2022/05/26 00:01:53;;;;;;;2.80;1.47;;;15.10;1.80;;;14.99;50.65;100930.75;4996766;28;20427;-72
2022/05/26 00:04:22;;;;;;;2.47;1.43;;;15.10;2.20;;;14.98;50.95;100926.34;4989761;28;20441;-72
2022/05/26 00:06:52;;;;;;;2.07;1.50;;;15.00;2.50;;;15.06;50.60;100931.47;4990675;28;20471;-71
2022/05/26 00:09:21;;;;;;;3.63;1.50;;;15.00;2.50;;;15.16;50.63;100925.47;4986182;28;20449;-72
2022/05/26 00:11:51;;;;;;;2.40;1.43;;;15.10;2.50;;;15.34;50.25;100927.31;4987966;28;20481;-72
2022/05/26 00:14:20;;;;;;;3.97;1.83;;;15.20;2.40;;;15.31;50.16;100923.16;4986038;28;20412;-69
2022/05/26 00:16:49;;;;;;;1.43;1.23;;;15.20;2.20;;;15.31;50.22;100919.59;4987036;28;20504;-70
2022/05/26 00:19:20;;;;;;;3.53;1.43;;;15.20;2.20;;;15.35;50.23;100920.78;4988447;28;20441;-72
2022/05/26 00:21:49;;;;;;;1.97;1.20;;;15.20;2.30;;;15.35;50.04;100921.63;4990859;28;20468;-71
2022/05/26 00:24:20;;;;;;;2.77;1.40;;;15.30;2.10;;;15.33;50.06;100920.19;4998011;28;20759;-72
2022/05/26 00:26:51;;;;;;;8.13;1.30;;;15.30;2.10;;;15.38;49.99;100921.16;4987640;28;20449;-70
2022/05/26 00:29:20;;;;;;;1.87;1.30;;;15.30;2.00;;;15.40;49.96;100918.19;5000349;28;20930;-72
2022/05/26 00:31:49;;;;;;;1.83;1.30;;;15.30;1.90;;;15.43;49.65;100912.28;5016495;28;20519;-72
2022/05/26 00:34:18;;;;;;;3.77;2.00;;;15.40;1.40;;;15.31;49.91;100911.41;4998885;28;20416;-71
2022/05/26 00:36:47;;;;;;;1.67;1.23;;;15.30;1.60;;;15.38;49.45;100913.00;4995530;28;20505;-70
2022/05/26 00:39:21;;;;;;;1.60;1.00;;;15.30;1.40;;;15.45;49.48;100913.69;5013882;28;20446;-71
2022/05/26 00:41:55;;;;;;;2.10;1.43;;;15.30;1.40;;;15.41;49.54;100917.13;4993433;28;20447;-72
2022/05/26 00:44:25;;;;;;;1.40;1.13;;;15.30;1.40;;;15.56;48.88;100909.38;5010859;28;20440;-71
2022/05/26 00:47:03;;;;;;;1.70;1.00;;;15.40;1.00;;;15.62;49.02;100913.91;4996688;28;20473;-71
2022/05/26 00:49:41;;;;;;;1.40;1.10;;;15.50;1.20;;;15.68;48.89;100915.69;4999099;28;20756;-73
2022/05/26 00:52:15;;;;;;;1.70;1.60;;;15.50;1.00;;;15.75;48.69;100908.22;4993316;28;20454;-71
2022/05/26 00:54:48;;;;;;;2.33;1.50;;;15.60;1.00;;;15.74;49.19;100912.00;4987004;28;20423;-72
2022/05/26 00:57:24;;;;;;;5.67;1.40;;;15.60;1.10;;;15.80;48.72;100916.53;4995766;28;20489;-73
2022/05/26 01:00:01;;;;;;;2.13;1.40;;;15.70;1.00;;;15.72;49.01;100921.50;5001255;28;20892;-72
2022/05/26 01:02:36;;;;;;;1.53;1.10;;;15.60;1.00;;;15.91;48.71;100917.59;5003126;28;20464;-72
2022/05/26 01:05:18;;;;;;;1.67;1.37;;;15.70;1.00;;;15.89;48.69;100917.00;4991527;28;20483;-70
2022/05/26 01:07:48;;;;;;;2.37;1.53;;;15.70;1.00;;;16.19;47.85;100916.88;4992131;28;20444;-71
2022/05/26 01:10:19;;;;;;;1.60;1.27;;;15.90;1.00;;;16.19;47.95;100919.63;4989557;28;20475;-73
2022/05/26 01:12:49;;;;;;;2.30;1.27;;;15.90;1.00;;;16.20;47.99;100924.00;5004148;28;20440;-72
2022/05/26 01:15:22;;;;;;;1.40;1.20;;;16.00;1.00;;;16.23;48.11;100926.25;4992207;28;20441;-70
2022/05/26 01:18:16;;;;;;;2.13;1.50;;;16.00;1.00;;;16.13;48.45;100920.56;4998296;28;20428;-71
2022/05/26 01:21:01;;;;;;;1.20;0.97;;;16.00;1.00;;;16.08;48.40;100918.53;4998417;28;20460;-72
2022/05/26 01:24:23;;;;;;;1.57;1.10;;;16.00;1.00;;;16.33;47.28;100921.03;4988447;28;20453;-69
2022/05/26 01:27:32;;;;;;;1.60;1.10;;;16.10;1.00;;;16.20;47.86;100924.00;4977042;28;20454;-72
2022/05/26 01:30:27;;;;;;;1.10;0.90;;;16.10;1.00;;;16.06;48.22;100928.88;4984324;28;20471;-72
2022/05/26 01:33:34;;;;;;;1.20;1.00;;;16.00;1.00;;;16.08;48.10;100922.09;5000783;28;20934;-71
2022/05/26 01:36:25;;;;;;;2.70;1.43;;;16.00;1.00;;;15.95;48.76;100916.06;5003723;28;20452;-72
2022/05/26 01:39:11;;;;;;;2.60;0.80;;;15.90;1.00;;;15.99;48.16;100914.50;4993732;28;20469;-73
2022/05/26 01:42:09;;;;;;;1.87;1.07;;;15.80;1.00;;;15.92;48.42;100903.72;4983510;28;20452;-71
2022/05/26 01:44:54;;;;;;;1.43;0.93;;;15.80;1.00;;;15.86;48.64;100915.59;4995482;28;20431;-72
2022/05/26 01:47:39;;;;;;;1.33;1.10;;;15.70;1.00;;;15.87;48.66;100905.50;4986276;28;20722;-70
2022/05/26 01:50:25;;;;;;;1.80;1.00;;;15.70;1.00;;;15.86;48.65;100904.66;4995344;28;20456;-69
2022/05/26 01:53:11;;;;;;;1.83;1.27;;;15.70;1.00;;;15.76;49.04;100912.59;5006362;28;20439;-72
2022/05/26 01:55:50;;;;;;;2.20;1.03;;;15.70;1.00;;;15.84;48.86;100904.06;4985832;28;20470;-72
2022/05/26 01:58:29;;;;;;;2.03;1.10;;;15.70;1.00;;;15.74;49.46;100917.47;5024918;28;20412;-70
2022/05/26 02:01:02;;;;;;;1.60;1.20;;;15.70;1.30;;;15.81;49.61;100918.19;4993239;28;20473;-69
2022/05/26 02:03:35;;;;;;;1.10;0.90;;;15.70;1.90;;;15.90;49.21;100910.47;5004779;28;20452;-69
2022/05/26 02:06:15;;;;;;;2.80;1.10;;;15.70;1.30;;;15.88;49.00;100918.88;5001841;28;20445;-72
2022/05/26 02:08:53;;;;;;;1.50;1.17;;;15.70;1.10;;;16.07;48.63;100912.25;4991582;28;20466;-71
2022/05/26 02:11:25;;;;;;;3.23;1.23;;;15.80;1.00;;;16.08;48.28;100913.91;4998061;28;20465;-71
2022/05/26 02:13:59;;;;;;;1.33;1.10;;;15.90;1.00;;;15.98;48.61;100912.84;5005221;28;20428;-71
2022/05/26 02:16:39;;;;;;;1.47;1.03;;;15.80;1.00;;;15.95;48.80;100914.16;5001749;28;20579;-71
2022/05/26 02:19:17;;;;;;;1.70;1.10;;;15.80;1.00;;;15.97;48.54;100917.50;5004694;28;20439;-71
2022/05/26 02:21:56;;;;;;;1.60;1.10;;;15.80;1.00;;;16.01;48.57;100913.22;4990540;28;20932;-71
2022/05/26 02:24:34;;;;;;;1.43;1.10;;;15.80;1.00;;;15.94;48.67;100912.50;4999859;28;20498;-72
2022/05/26 02:27:04;;;;;;;1.40;0.90;;;15.80;1.00;;;15.94;48.59;100915.22;5002803;28;20430;-73
2022/05/26 02:32:21;;;;;;;5.50;1.10;;;15.70;1.00;;;15.98;48.79;100913.69;4994103;28;20501;-71
2022/05/26 02:34:53;;;;;;;1.60;0.90;;;15.80;1.00;;;15.96;48.81;100909.53;4996308;28;20424;-72
2022/05/26 02:37:26;;;;;;;1.60;1.00;;;15.80;1.00;;;15.93;49.09;100916.28;4992146;28;20436;-71
2022/05/26 02:39:55;;;;;;;2.37;1.40;;;15.80;1.20;;;15.93;49.25;100910.00;5000800;28;20444;-70
2022/05/26 02:42:25;;;;;;;1.97;1.47;;;15.70;1.40;;;15.93;49.52;100919.00;5003533;28;20467;-71
2022/05/26 02:44:54;;;;;;;1.87;1.13;;;15.80;1.60;;;15.87;49.48;100921.88;4994004;28;20917;-72
2022/05/26 02:47:45;;;;;;;1.40;1.30;;;15.70;1.50;;;15.83;49.96;100917.97;4991429;28;20412;-71
2022/05/26 02:50:32;;;;;;;1.50;1.10;;;15.70;1.90;;;15.86;50.03;100914.75;4997560;28;20528;-71
2022/05/26 02:53:18;;;;;;;1.77;0.90;;;15.70;1.90;;;15.92;49.57;100911.09;4998562;28;20879;-72
2022/05/26 02:56:04;;;;;;;1.77;1.13;;;15.70;1.80;;;15.88;49.79;100913.44;4996493;28;20423;-73
2022/05/26 02:58:42;;;;;;;1.70;1.00;;;15.70;2.00;;;15.94;49.83;100909.78;4995897;28;20439;-70
2022/05/26 03:01:22;;;;;;;2.13;1.27;;;15.70;2.10;;;15.88;49.90;100899.78;5002639;28;20496;-70
2022/05/26 03:03:59;;;;;;;3.60;1.53;;;15.70;2.10;;;15.93;49.96;100910.81;5005639;28;20511;-71
2022/05/26 03:06:38;;;;;;;3.03;1.40;;;15.70;2.40;;;16.02;49.74;100912.13;4996070;28;21172;-70
2022/05/26 03:09:10;;;;;;;2.80;1.33;;;15.80;2.20;;;15.96;49.95;100915.84;4992082;28;20443;-72
2022/05/26 03:11:48;;;;;;;1.40;1.30;;;15.80;2.20;;;15.99;50.22;100915.34;4990673;28;20514;-71
2022/05/26 03:14:19;;;;;;;1.67;1.07;;;15.80;2.60;;;16.03;49.76;100911.06;5017951;28;20424;-71
2022/05/26 03:16:49;;;;;;;4.57;0.80;;;15.80;2.30;;;16.02;49.99;100909.41;5003125;28;20439;-73
2022/05/26 03:19:19;;;;;;;1.97;1.30;;;15.80;2.50;;;16.00;50.16;100908.81;4989818;28;20413;-72
2022/05/26 03:21:49;;;;;;;6.93;1.13;;;15.80;2.50;;;15.97;50.21;100906.59;4999359;28;20428;-71
2022/05/26 03:24:19;;;;;;;1.50;1.30;;;15.80;2.60;;;16.11;49.74;100904.44;4998737;28;20790;-72
2022/05/26 03:26:48;;;;;;;2.83;1.20;;;15.80;2.30;;;16.09;49.75;100901.09;4997486;28;20469;-71
2022/05/26 03:29:17;;;;;;;2.20;1.57;;;15.90;2.50;;;16.06;50.11;100921.53;4992792;28;20547;-72
2022/05/26 03:31:46;;;;;;;5.10;1.73;;;15.90;2.60;;;16.11;50.23;100915.34;5004732;28;20447;-72
2022/05/26 03:43:04;;;;;;;1.30;1.00;;;15.90;3.00;;;16.19;50.37;100917.72;4994185;28;20952;-70
2022/05/26 03:45:34;;;;;;;3.20;1.27;;;15.90;3.30;;;16.20;50.36;100921.28;5008137;28;20939;-72
2022/05/26 03:48:05;;;;;;;2.80;1.20;;;16.00;3.20;;;16.31;50.68;100912.25;4993937;28;20801;-69
2022/05/26 03:50:34;;;;;;;1.67;1.43;;;16.00;3.60;;;16.37;50.09;100916.75;4987069;28;20529;-72
2022/05/26 03:53:03;;;;;;;3.10;1.13;;;16.10;3.10;;;16.39;49.85;100920.06;4998345;28;20496;-69
2022/05/26 03:55:33;;;;;;;1.40;1.00;;;16.10;3.00;;;16.44;49.90;100912.81;4996845;28;20456;-73
2022/05/26 03:58:03;;;;;;;1.30;1.07;;;16.20;3.10;;;16.44;49.71;100917.47;4994592;28;20908;-71
2022/05/26 04:00:33;;;;;;;2.00;1.07;;;16.20;2.80;;;16.44;49.70;100933.84;4992449;28;20453;-73
2022/05/26 04:03:02;;;;;;;1.70;1.00;;;16.20;2.70;;;16.44;50.01;100933.84;4984790;28;20517;-72
2022/05/26 04:05:31;;;;;;;2.00;1.30;;;16.20;3.00;;;16.46;49.67;100928.94;4990550;28;20791;-70
2022/05/26 04:08:00;;;;;;;2.17;1.37;;;16.20;2.80;;;16.52;49.87;100941.66;5002771;28;20503;-70
2022/05/26 04:10:29;;;;;;;1.40;1.03;;;16.30;3.10;;;16.60;49.77;100933.16;4989230;28;20567;-72
2022/05/26 04:13:00;;;;;;;4.03;0.97;;;16.30;3.20;;;16.67;49.88;100928.34;4996068;28;20409;-71
2022/05/26 04:15:29;;;;;;;1.47;1.10;;;16.30;3.30;;;16.85;49.38;100930.91;4998269;28;20555;-71
2022/05/26 04:17:58;;;;;;;5.43;2.20;;;16.40;3.20;;;17.25;48.74;100935.53;4991588;28;20572;-72
2022/05/26 04:20:27;;;;;;;1.67;1.07;;;16.60;2.90;;;17.35;48.33;100924.78;5000414;28;20924;-71
2022/05/26 04:22:55;;;;;;;1.80;1.17;;;16.70;2.50;;;18.31;46.50;100929.09;4988795;28;20918;-72
2022/05/26 04:25:25;;;;;;;2.13;0.97;;;17.10;2.10;;;18.56;46.27;100932.22;4990286;28;20516;-72
2022/05/26 04:27:54;;;;;;;3.70;1.40;;;17.40;1.80;;;18.94;45.31;100927.75;5001339;28;20818;-70
2022/05/26 04:30:26;;;;;;;2.00;1.60;;;17.70;1.00;;;18.60;45.92;100941.59;5003802;28;20615;-71
2022/05/26 04:32:56;;;;;;;1.83;1.20;;;17.80;1.00;;;18.28;46.92;100943.31;4996725;28;20512;-72
2022/05/26 04:35:25;;;;;;;1.43;1.10;;;17.70;1.00;;;18.29;47.26;100944.16;4998724;28;20584;-70
2022/05/26 04:37:54;;;;;;;3.33;2.20;;;17.60;1.30;;;17.90;48.36;100954.22;4994153;28;20407;-72
2022/05/26 04:40:23;;;;;;;2.80;1.47;;;17.40;2.20;;;17.76;48.42;100945.50;4996788;28;20790;-71
2022/05/26 04:42:53;;;;;;;2.20;1.40;;;17.30;2.10;;;17.55;49.42;100947.03;4993585;28;20486;-71
2022/05/26 04:45:25;;;;;;;2.07;1.50;;;17.10;3.10;;;17.49;49.57;100947.16;4995762;28;20512;-70
2022/05/26 04:47:54;;;;;;;3.07;1.77;;;17.10;3.10;;;17.65;49.02;100944.50;4998778;28;20429;-72
2022/05/26 04:50:23;;;;;;;4.63;1.53;;;17.20;3.10;;;17.68;49.26;100952.19;4990648;28;20871;-70
2022/05/26 04:52:52;;;;;;;2.10;1.90;;;17.20;3.40;;;17.80;49.29;100949.41;4999437;28;20843;-71
2022/05/26 04:55:21;;;;;;;1.67;1.40;;;17.20;3.60;;;18.06;48.68;100948.72;4996327;28;20420;-72
2022/05/26 04:57:52;;;;;;;1.97;1.40;;;17.40;3.40;;;18.00;48.88;100947.00;4993780;28;20880;-72
2022/05/26 05:00:21;;;;;;;6.60;2.27;;;17.40;3.20;;;18.20;48.98;100949.22;4991195;28;20412;-72
2022/05/26 05:02:53;;;;;;;2.53;2.00;;;17.50;3.50;;;18.39;48.43;100953.34;4998535;28;20441;-71
2022/05/26 05:05:22;;;;;;;2.77;1.50;;;17.60;3.70;;;18.55;48.03;100949.75;4977524;28;20934;-70
2022/05/26 05:07:51;;;;;;;5.77;1.40;;;17.70;3.50;;;18.90;47.62;100940.31;4983821;28;20794;-69
2022/05/26 05:10:20;;;;;;;1.97;1.53;;;17.70;3.50;;;19.29;46.80;100952.84;5001158;28;20550;-71
2022/05/26 05:12:51;;;;;;;3.13;2.27;;;18.10;2.80;;;19.65;45.99;100955.97;4991170;28;20434;-71
2022/05/26 05:15:29;;;;;;;2.03;1.83;;;18.40;2.40;;;19.04;47.58;100960.78;4994005;28;20454;-71
2022/05/26 05:17:59;;;;;;;2.23;1.50;;;18.30;2.40;;;19.88;45.95;100961.13;5004284;28;20411;-70
2022/05/26 05:20:28;;;;;;;1.57;1.33;;;18.60;2.20;;;22.50;41.02;100965.84;5004567;28;20774;-72
2022/05/26 05:23:06;;;;;;;2.90;1.47;;;19.50;1.00;;;22.48;41.02;100968.06;4990423;28;20479;-71
2022/05/26 05:25:42;;;;;;;1.47;1.37;;;20.30;1.00;;;21.32;43.02;100966.09;4994012;28;20481;-70
2022/05/26 05:28:17;;;;;;;2.47;1.83;;;20.10;1.00;;;21.83;41.82;100967.00;4991721;28;20445;-69
2022/05/26 05:30:54;;;;;;;3.60;1.57;;;20.10;1.00;;;20.32;44.49;100970.00;4998837;28;21110;-71
2022/05/26 05:33:32;;;;;;;2.10;1.47;;;19.70;1.00;;;19.28;47.11;100967.66;4989585;28;20453;-71
2022/05/26 05:36:08;;;;;;;2.53;2.00;;;19.10;1.00;;;18.73;48.61;100970.56;5007892;28;20441;-71
2022/05/26 05:38:40;;;;;;;3.30;2.13;;;18.60;1.70;;;18.73;48.73;100969.72;5000700;28;20444;-71
2022/05/26 05:41:11;;;;;;;1.83;1.63;;;18.40;2.50;;;18.81;48.88;100975.59;4992505;28;20453;-71
2022/05/26 05:43:41;;;;;;;2.37;1.67;;;18.30;3.20;;;19.37;47.85;100971.56;4997065;28;20449;-71
2022/05/26 05:46:11;;;;;;;1.70;1.60;;;18.40;3.50;;;19.29;47.99;100966.56;5032278;22;20483;-70
2022/05/26 05:48:43;;;;;;;2.30;2.10;;;18.70;3.10;;;19.30;47.92;100975.63;5028235;28;20415;-70
2022/05/26 05:51:13;;;;;;;6.13;2.10;;;18.70;2.90;;;18.87;49.42;100968.25;5011157;28;20509;-69
2022/05/26 05:53:44;;;;;;;2.30;1.47;;;18.50;3.50;;;18.60;50.27;100974.47;5017191;28;20519;-73
2022/05/26 05:56:13;;;;;;;4.17;2.30;;;18.40;4.30;;;18.41;50.40;100984.03;5015193;28;20421;-70
2022/05/26 05:58:42;;;;;;;3.13;1.50;;;18.20;4.50;;;18.35;50.83;100979.56;5017603;28;20448;-69
2022/05/26 06:01:10;;;;;;;4.87;2.20;;;18.10;5.10;;;18.11;51.44;100989.03;5007332;28;20532;-70
2022/05/26 06:03:41;;;;;;;2.23;1.97;;;17.90;5.40;;;17.98;51.74;100981.16;4999380;28;20536;-70
2022/05/26 06:06:10;;;;;;;2.00;1.80;;;17.70;5.80;;;17.85;52.30;100974.13;5005735;28;20448;-69
2022/05/26 06:08:39;;;;;;;5.53;2.47;;;17.60;6.70;;;18.12;52.03;100997.03;5000630;28;20437;-70
2022/05/26 06:11:08;;;;;;;9.60;2.27;;;17.70;7.30;;;17.91;52.56;100996.94;5030241;28;21013;-70
2022/05/26 06:13:37;;;;;;;2.97;2.23;;;17.60;7.40;;;17.55;53.31;100995.44;4999861;28;20416;-70
2022/05/26 06:16:06;;;;;;;2.97;2.67;;;17.40;8.10;;;17.74;53.41;100989.53;5029270;28;20436;-70
2022/05/26 06:18:35;;;;;;;3.33;3.03;;;17.40;9.00;;;17.94;52.82;100994.53;5021893;28;20526;-71
2022/05/26 06:21:08;;;;;;;2.50;2.27;;;17.50;9.20;;;17.86;53.44;100991.38;5025371;28;20464;-70
2022/05/26 06:23:37;;;;;;;3.43;2.53;;;17.50;9.80;;;18.03;52.98;101000.41;5006559;28;20508;-68
2022/05/26 06:26:06;;;;;;;3.27;2.50;;;17.60;9.30;;;17.91;53.07;100992.28;5009360;28;20413;-69
2022/05/26 06:31:22;;;;;;;2.53;2.33;;;17.50;9.40;;;17.70;53.82;100993.84;4993726;28;20541;-70
2022/05/26 06:39:24;;;;;;;3.93;3.10;;;17.40;11.30;;;17.63;54.52;101006.00;5020993;28;20411;-71
2022/05/26 06:42:08;;;;;;;3.70;2.90;;;17.40;11.30;;;17.54;54.41;101011.03;5012618;28;20507;-69
2022/05/26 06:44:43;;;;;;;3.80;3.20;;;17.40;11.40;;;17.58;54.80;101012.19;5014373;28;20460;-70
2022/05/26 06:47:17;;;;;;;4.00;3.40;;;17.30;12.70;;;17.63;54.68;101012.31;5016825;28;20433;-70
2022/05/26 06:49:47;;;;;;;3.10;2.80;;;17.30;12.70;;;17.56;54.86;101017.09;5018211;28;20437;-69
2022/05/26 06:52:23;;;;;;;3.03;2.43;;;17.30;12.90;;;17.33;55.72;101014.47;5015931;28;20982;-70
2022/05/26 06:54:54;;;;;;;3.23;2.90;;;17.10;14.20;;;17.28;56.30;101017.09;5008711;28;20866;-70
2022/05/26 06:57:22;;;;;;;9.33;3.10;;;17.10;15.60;;;17.26;56.35;101013.75;5003035;28;20484;-71
2022/05/26 06:59:51;;;;;;;2.83;2.53;;;17.00;16.50;;;17.52;56.31;101026.88;5017455;28;20532;-71
2022/05/26 07:02:21;;;;;;;3.27;3.07;;;17.10;17.50;;;17.46;56.44;101030.59;5010453;28;20465;-70
2022/05/26 07:04:50;;;;;;;3.60;3.30;;;17.10;17.30;;;17.33;56.62;101037.16;5014392;28;20422;-70
2022/05/26 07:07:26;;;;;;;3.40;3.00;;;17.20;17.70;;;16.88;58.28;101034.31;5017963;28;20528;-70
2022/05/26 07:09:56;;;;;;;3.50;3.20;;;16.80;20.80;;;16.79;59.83;101051.31;5027415;28;20471;-70
2022/05/26 07:12:26;;;;;;;3.50;3.20;;;16.70;26.00;;;16.67;61.41;101056.78;5024048;28;20559;-70
2022/05/26 07:14:55;;;;;;;3.50;3.20;;;16.60;37.00;;;16.23;63.25;101060.88;5026877;28;20448;-69
2022/05/26 07:17:24;;;;;;;5.63;4.10;;;16.30;52.50;;;15.44;67.60;101074.84;5024767;28;20436;-69
2022/05/26 07:19:53;;;;;;;4.73;4.33;;;15.70;96.30;;;15.20;70.22;101082.88;5013122;28;20443;-71
2022/05/26 07:22:25;;;;;;;6.40;4.27;;;15.30;99.90;;;14.52;74.36;101092.22;5031346;28;20431;-71
2022/05/26 07:24:53;;;;;;;7.13;4.90;;;14.70;99.90;;;14.28;76.95;101091.94;5031914;28;20814;-71
2022/05/26 07:27:22;;;;;;;6.43;5.83;;;14.40;99.90;;;14.35;77.70;101091.91;5022443;28;20433;-71
2022/05/26 07:29:54;;;;;;;12.30;5.37;;;14.30;99.90;;;14.41;78.32;101098.38;5000591;28;20464;-70
2022/05/26 07:32:24;;;;;;;10.30;6.40;;;14.30;99.90;;;14.37;77.79;101108.06;5021225;28;20484;-71
2022/05/26 07:34:53;;;;;;;7.20;6.50;;;14.30;99.90;;;14.33;78.67;101094.81;5027191;28;20558;-71
2022/05/26 07:43:10;;;;;;;5.73;5.30;;;14.60;99.90;;;15.26;77.07;101081.13;5012375;28;20448;-71
2022/05/26 07:45:39;;;;;;;6.23;5.63;;;14.80;99.90;;;15.44;75.29;101093.94;5006545;28;20544;-70
2022/05/26 07:48:08;;;;;;;5.90;5.40;;;14.90;99.90;;;15.79;75.43;101089.47;5015261;28;20472;-70
2022/05/26 07:50:37;;;;;;;6.07;5.53;;;15.20;99.90;;;16.16;73.85;101089.38;5010784;28;20480;-70
2022/05/26 07:53:06;;;;;;;7.17;6.30;;;15.50;99.90;;;16.37;72.62;101092.38;5019756;28;20456;-71
2022/05/26 07:55:38;;;;;;;6.50;5.87;;;15.70;99.90;;;16.54;71.70;101097.97;5012453;28;20439;-71
2022/05/26 07:58:07;;;;;;;6.30;5.63;;;16.00;99.90;;;16.76;71.04;101090.88;5011582;28;20437;-71
2022/05/26 08:00:36;;;;;;;6.20;5.50;;;16.20;99.90;;;17.08;69.51;101093.25;5015145;28;21013;-69
2022/05/26 08:03:05;;;;;;;5.80;5.30;;;16.40;99.90;;;17.44;68.02;101098.38;5016470;28;20795;-70
2022/05/26 08:05:35;;;;;;;6.40;5.80;;;16.70;99.90;;;17.63;67.25;101099.06;5024447;28;20448;-70
2022/05/26 08:08:05;;;;;;;9.33;4.70;;;16.90;99.90;;;17.85;65.71;101089.09;5019134;28;20440;-71
2022/05/26 08:10:36;;;;;;;9.90;5.97;;;17.10;99.90;;;18.06;65.21;101095.75;5012383;28;20477;-70
2022/05/26 08:13:06;;;;;;;5.57;4.90;;;17.30;99.90;;;18.11;63.95;101102.16;5021529;28;20528;-71
2022/05/26 08:15:35;;;;;;;5.83;4.73;;;17.50;12.80;;;18.46;63.27;101096.47;5019832;28;20449;-71
2022/05/26 08:18:05;;;;;;;5.80;4.50;;;17.70;16.80;;;18.60;62.04;101099.72;5011534;28;20947;-70
2022/05/26 08:20:34;;;;;;;4.80;4.40;;;17.90;1.00;;;17.81;63.49;101096.94;5019150;28;21062;-70
2022/05/26 08:23:03;;;;;;;6.10;4.40;;;17.70;1.00;;;18.44;61.80;101101.38;5018973;28;20464;-70
2022/05/26 08:25:34;;;;;;;5.10;4.60;;;17.80;1.00;;;18.49;61.25;101097.91;5017326;28;20436;-70
2022/05/26 08:28:05;;;;;;;3.70;3.40;;;17.90;1.00;;;19.17;59.76;101100.28;5013517;28;20897;-71
2022/05/26 08:30:35;;;;;;;4.87;3.33;;;18.30;1.00;;;19.49;59.09;101095.81;4996461;28;20452;-69
2022/05/26 08:33:04;;;;;;;4.53;4.13;;;18.60;1.00;;;19.87;57.79;101102.28;5004674;28;20440;-70
2022/05/26 08:35:33;;;;;;;3.57;3.27;;;19.10;1.00;;;19.39;57.52;101105.78;5011152;28;20419;-71
2022/05/26 08:38:02;;;;;;;2.53;2.33;;;18.90;1.00;;;19.33;57.20;101117.78;5011946;28;20456;-71
2022/05/26 08:40:38;;;;;;;2.10;1.90;;;18.90;1.00;;;19.49;57.04;101112.28;5007681;28;20488;-71
2022/05/26 08:43:17;;;;;;;3.07;2.43;;;19.20;1.00;;;19.78;56.45;101112.06;5023092;28;20441;-71
2022/05/26 08:45:51;;;;;;;4.20;2.63;;;19.30;1.00;;;19.76;55.88;101116.97;5008932;28;20434;-70
2022/05/26 08:48:48;;;;;;;2.53;2.00;;;19.20;1.00;;;19.76;54.96;101109.56;5003050;28;20437;-71
2022/05/26 08:51:29;;;;;;;2.03;1.57;;;19.20;1.00;;;19.50;54.08;101102.97;5018308;28;20894;-71
2022/05/26 08:54:00;;;;;;;1.57;1.30;;;19.30;1.00;;;19.38;54.83;101107.72;5015594;28;20440;-70
2022/05/26 08:56:29;;;;;;;3.57;1.40;;;19.10;1.00;;;19.25;54.15;101116.31;5015276;28;20495;-70
2022/05/26 08:59:09;;;;;;;2.40;1.70;;;18.90;1.00;;;19.49;55.14;101111.44;5010662;28;20889;-70
2022/05/26 09:01:40;;;;;;;3.77;2.07;;;19.10;1.00;;;19.89;53.68;101111.09;5019430;28;20518;-71
2022/05/26 09:04:10;;;;;;;4.67;1.90;;;19.30;1.00;;;19.80;52.28;101107.16;5018330;28;20519;-70
2022/05/26 09:15:20;;;;;;;1.60;1.30;;;19.50;1.00;;;19.41;51.91;101107.19;5025192;28;20399;-70
2022/05/26 09:17:49;;;;;;;1.63;1.47;;;19.30;1.00;;;19.37;51.80;101118.94;5029114;28;20435;-70
2022/05/26 09:20:39;;;;;;;2.03;1.60;;;19.20;1.00;;;20.01;50.41;101114.50;5018627;28;20547;-70
2022/05/26 09:23:25;;;;;;;2.10;1.40;;;19.40;1.00;;;19.95;49.42;101126.50;5010602;28;20411;-70
2022/05/26 09:26:03;;;;;;;4.40;1.10;;;19.50;1.00;;;19.82;50.60;101114.03;5008789;28;20507;-69
2022/05/26 09:28:45;;;;;;;1.43;1.10;;;19.40;1.00;;;19.68;50.87;101117.44;5008598;28;20411;-70
2022/05/26 09:31:29;;;;;;;3.73;1.23;;;19.30;1.00;;;19.21;50.47;101109.69;5014155;28;20436;-71
2022/05/26 09:34:08;;;;;;;2.30;1.47;;;19.00;1.00;;;19.46;51.07;101112.78;5005274;28;20433;-70
2022/05/26 09:36:48;;;;;;;1.47;1.20;;;19.00;1.00;;;19.24;51.96;101114.66;5001040;28;20439;-71
2022/05/26 09:39:23;;;;;;;2.90;1.60;;;18.90;1.00;;;18.87;51.97;101135.53;5011135;28;21006;-69
2022/05/26 09:41:55;;;;;;;6.50;1.80;;;18.70;1.00;;;18.76;52.48;101125.47;5003133;28;20500;-69
2022/05/26 09:44:46;;;;;;;2.33;1.13;;;18.50;1.00;;;18.77;52.58;101125.22;5006786;28;20443;-69
2022/05/26 09:47:32;;;;;;;3.97;1.27;;;18.50;1.00;;;18.91;52.99;101142.16;5007566;28;20880;-70
2022/05/26 09:50:05;;;;;;;1.70;1.10;;;18.50;1.00;;;19.04;53.00;101139.06;5004698;28;20519;-70
2022/05/26 09:52:44;;;;;;;1.70;1.33;;;18.60;1.00;;;19.48;51.64;101146.28;5004304;28;20807;-70
2022/05/26 09:55:20;;;;;;;2.17;1.70;;;18.90;1.00;;;19.87;51.75;101140.72;5007274;28;20503;-70
2022/05/26 09:57:49;;;;;;;4.72;1.60;;;19.30;1.00;;;20.45;49.95;101141.88;5004715;28;20503;-70
2022/05/26 10:00:38;;;;;;;2.47;1.40;;;19.70;1.00;;;20.09;49.54;101146.19;5005326;28;20620;-70
2022/05/26 10:03:21;;;;;;;1.90;1.23;;;19.80;1.00;;;19.60;50.96;101131.63;5005030;28;20434;-70
2022/05/26 10:06:03;;;;;;;1.73;1.20;;;19.40;1.00;;;19.66;50.38;101136.06;5003127;28;20473;-70
2022/05/26 10:08:42;;;;;;;2.40;1.63;;;19.40;1.00;;;19.21;51.25;101139.03;5007214;28;20487;-70
2022/05/26 10:11:27;;;;;;;1.50;1.40;;;19.10;1.00;;;18.86;52.45;101136.59;4995715;28;20478;-70
2022/05/26 10:14:18;;;;;;;2.20;1.80;;;18.80;1.00;;;18.63;53.07;101140.34;5007469;28;20433;-70
2022/05/26 10:16:56;;;;;;;2.53;1.43;;;18.50;1.00;;;18.79;53.18;101135.94;5013522;28;20457;-71
2022/05/26 10:19:46;;;;;;;1.50;1.33;;;18.50;1.00;;;18.64;52.84;101140.09;5006314;28;20765;-70
2022/05/26 10:22:41;;;;;;;3.80;1.87;;;18.40;1.00;;;18.45;53.04;101156.97;5023721;28;20461;-70
2022/05/26 10:25:30;;;;;;;2.23;1.20;;;18.30;1.00;;;18.65;52.73;101149.97;5012083;28;20474;-72
2022/05/26 10:28:28;;;;;;;1.87;1.53;;;18.30;1.00;;;18.81;52.45;101159.28;5010779;28;20844;-71
2022/05/26 10:31:11;;;;;;;3.20;1.50;;;18.50;1.00;;;19.30;51.34;101152.06;5001582;28;20496;-71
2022/05/26 10:33:59;;;;;;;3.77;1.90;;;18.80;1.00;;;19.72;50.08;101151.53;5010684;28;20471;-70
2022/05/26 10:36:52;;;;;;;2.10;1.70;;;19.10;1.00;;;19.59;49.85;101146.44;5009225;28;20433;-70
2022/05/26 10:39:38;;;;;;;2.20;1.57;;;19.10;1.00;;;19.33;50.41;101147.97;5008496;28;20493;-70
2022/05/26 10:42:19;;;;;;;1.90;1.50;;;19.10;1.00;;;19.32;50.74;101138.91;5013755;28;20459;-70
2022/05/26 10:45:06;;;;;;;2.03;1.83;;;19.00;1.00;;;19.37;50.71;101147.19;5012704;28;20674;-71
2022/05/26 10:47:44;;;;;;;1.80;1.30;;;19.00;1.00;;;19.39;51.07;101146.97;5005122;28;20952;-71
2022/05/26 10:50:27;;;;;;;2.60;1.37;;;19.00;1.00;;;20.22;50.02;101138.34;5011496;28;20425;-70
2022/05/26 10:53:09;;;;;;;3.10;1.60;;;19.60;1.00;;;20.71;47.39;101135.50;5010442;28;20513;-70
2022/05/26 10:55:50;;;;;;;3.33;1.87;;;20.10;1.00;;;20.64;46.80;101130.22;5001380;28;20420;-70
2022/05/26 10:58:27;;;;;;;3.60;2.30;;;20.30;1.00;;;20.59;47.35;101121.94;5009705;28;20493;-70
2022/05/26 11:01:03;;;;;;;1.97;1.63;;;20.30;1.00;;;20.50;46.90;101128.19;5005545;28;20471;-70
2022/05/26 11:03:37;;;;;;;8.33;2.03;;;20.20;1.00;;;20.37;46.56;101129.44;5005478;28;20440;-71
2022/05/26 11:06:22;;;;;;;2.13;1.93;;;20.10;1.00;;;20.73;45.98;101134.13;5016375;28;20501;-71
2022/05/26 11:09:00;;;;;;;2.40;2.20;;;20.20;1.00;;;20.77;46.09;101123.44;5003923;28;20438;-70
2022/05/26 11:11:37;;;;;;;4.33;2.17;;;20.30;1.00;;;20.43;46.24;101122.09;5002291;28;20926;-70
2022/05/26 11:17:21;;;;;;;3.40;2.03;;;20.30;1.00;;;20.62;46.22;101126.09;5004146;28;20551;-69
2022/05/26 11:17:23;;;;;;;4.20;2.40;;;20.30;1.00;;;21.21;45.12;101130.34;4996404;28;20416;-70
2022/05/26 11:20:02;;;;;;;4.00;1.93;;;20.70;1.00;;;21.28;44.88;101129.28;5007741;28;20894;-69
2022/05/26 11:22:32;;;;;;;2.53;2.00;;;20.90;1.00;;;21.73;44.66;101137.75;5004596;28;20435;-70
2022/05/26 11:25:02;;;;;;;3.10;1.90;;;21.20;1.00;;;22.04;43.71;101130.41;5015996;28;20416;-70